sensor_id;sensor_type;location;lat;lon;timestamp;pressure;altitude;pressure_sealevel;temperature;humidity
43989;BME280;54163;51.386;7.178;2022-08-19T00:00:53;100302.09;;;22.46;67.14
43989;BME280;54163;51.386;7.178;2022-08-19T00:03:20;100310.31;;;22.46;67.04
43989;BME280;54163;51.386;7.178;2022-08-19T00:05:46;100305.50;;;22.48;67.04
43989;BME280;54163;51.386;7.178;2022-08-19T00:08:13;100302.59;;;22.49;66.96
43989;BME280;54163;51.386;7.178;2022-08-19T00:10:42;100310.97;;;22.48;66.86
43989;BME280;54163;51.386;7.178;2022-08-19T00:13:08;100314.41;;;21.40;72.25
43989;BME280;54163;51.386;7.178;2022-08-19T00:15:36;100309.38;;;21.92;69.95
43989;BME280;54163;51.386;7.178;2022-08-19T00:18:03;100314.34;;;21.88;70.73
43989;BME280;54163;51.386;7.178;2022-08-19T00:20:30;100309.56;;;21.82;70.78
43989;BME280;54163;51.386;7.178;2022-08-19T00:22:57;100304.09;;;21.82;70.84
43989;BME280;54163;51.386;7.178;2022-08-19T00:25:23;100311.44;;;21.82;70.62
43989;BME280;54163;51.386;7.178;2022-08-19T00:27:51;100311.25;;;21.83;70.49
43989;BME280;54163;51.386;7.178;2022-08-19T00:30:19;100312.44;;;21.81;70.38
43989;BME280;54163;51.386;7.178;2022-08-19T00:32:46;100313.66;;;21.94;69.83
43989;BME280;54163;51.386;7.178;2022-08-19T00:35:13;100317.34;;;22.02;69.41
43989;BME280;54163;51.386;7.178;2022-08-19T00:37:40;100311.41;;;21.98;69.47
43989;BME280;54163;51.386;7.178;2022-08-19T00:40:10;100317.56;;;21.92;69.88
43989;BME280;54163;51.386;7.178;2022-08-19T00:42:38;100315.03;;;21.82;70.03
43989;BME280;54163;51.386;7.178;2022-08-19T00:45:10;100307.19;;;21.79;70.40
43989;BME280;54163;51.386;7.178;2022-08-19T00:47:38;100315.69;;;21.76;70.35
43989;BME280;54163;51.386;7.178;2022-08-19T00:50:06;100315.03;;;21.82;70.09
43989;BME280;54163;51.386;7.178;2022-08-19T00:52:38;100310.22;;;21.84;69.89
43989;BME280;54163;51.386;7.178;2022-08-19T00:55:13;100303.41;;;21.80;69.77
43989;BME280;54163;51.386;7.178;2022-08-19T00:57:44;100303.28;;;21.66;70.51
43989;BME280;54163;51.386;7.178;2022-08-19T01:00:17;100301.97;;;21.54;71.01
43989;BME280;54163;51.386;7.178;2022-08-19T01:02:45;100301.75;;;21.63;70.41
43989;BME280;54163;51.386;7.178;2022-08-19T01:05:15;100294.28;;;21.57;70.68
43989;BME280;54163;51.386;7.178;2022-08-19T01:07:44;100303.63;;;21.63;70.48
43989;BME280;54163;51.386;7.178;2022-08-19T01:10:15;100288.28;;;21.70;70.20
43989;BME280;54163;51.386;7.178;2022-08-19T01:12:45;100289.63;;;21.66;70.22
43989;BME280;54163;51.386;7.178;2022-08-19T01:15:16;100289.78;;;21.64;70.24
43989;BME280;54163;51.386;7.178;2022-08-19T01:17:44;100298.53;;;21.60;70.44
43989;BME280;54163;51.386;7.178;2022-08-19T01:20:12;100298.03;;;21.56;70.61
43989;BME280;54163;51.386;7.178;2022-08-19T01:22:45;100295.81;;;21.52;70.55
43989;BME280;54163;51.386;7.178;2022-08-19T01:25:13;100294.28;;;21.49;70.84
43989;BME280;54163;51.386;7.178;2022-08-19T01:27:43;100304.00;;;21.52;70.67
43989;BME280;54163;51.386;7.178;2022-08-19T01:30:14;100299.38;;;21.60;70.22
43989;BME280;54163;51.386;7.178;2022-08-19T01:32:41;100297.00;;;21.57;70.30
43989;BME280;54163;51.386;7.178;2022-08-19T01:35:10;100297.84;;;21.58;70.39
43989;BME280;54163;51.386;7.178;2022-08-19T01:37:45;100291.16;;;21.68;69.96
43989;BME280;54163;51.386;7.178;2022-08-19T01:40:13;100290.34;;;21.60;70.10
43989;BME280;54163;51.386;7.178;2022-08-19T01:42:40;100290.84;;;21.63;69.78
43989;BME280;54163;51.386;7.178;2022-08-19T01:45:08;100288.63;;;21.67;69.66
43989;BME280;54163;51.386;7.178;2022-08-19T01:47:38;100301.22;;;21.68;69.44
43989;BME280;54163;51.386;7.178;2022-08-19T01:50:07;100293.03;;;21.68;69.32
43989;BME280;54163;51.386;7.178;2022-08-19T01:52:36;100297.97;;;21.72;68.94
43989;BME280;54163;51.386;7.178;2022-08-19T01:55:06;100299.34;;;21.68;69.34
43989;BME280;54163;51.386;7.178;2022-08-19T01:57:34;100297.66;;;21.59;69.64
43989;BME280;54163;51.386;7.178;2022-08-19T02:00:04;100290.50;;;21.66;69.50
43989;BME280;54163;51.386;7.178;2022-08-19T02:02:37;100287.94;;;21.65;69.35
43989;BME280;54163;51.386;7.178;2022-08-19T02:05:05;100285.22;;;21.49;70.04
43989;BME280;54163;51.386;7.178;2022-08-19T02:07:32;100287.63;;;21.52;69.94
43989;BME280;54163;51.386;7.178;2022-08-19T02:10:01;100280.97;;;21.46;70.19
43989;BME280;54163;51.386;7.178;2022-08-19T02:12:30;100279.66;;;21.42;70.72
43989;BME280;54163;51.386;7.178;2022-08-19T02:14:58;100279.31;;;21.45;70.63
43989;BME280;54163;51.386;7.178;2022-08-19T02:17:26;100275.72;;;21.44;70.61
43989;BME280;54163;51.386;7.178;2022-08-19T02:19:54;100274.66;;;21.45;70.36
43989;BME280;54163;51.386;7.178;2022-08-19T02:22:21;100276.53;;;21.53;69.87
43989;BME280;54163;51.386;7.178;2022-08-19T02:24:48;100281.66;;;21.56;69.85
43989;BME280;54163;51.386;7.178;2022-08-19T02:27:15;100291.91;;;21.54;69.72
43989;BME280;54163;51.386;7.178;2022-08-19T02:29:45;100290.69;;;21.57;69.78
43989;BME280;54163;51.386;7.178;2022-08-19T02:32:12;100289.69;;;21.50;69.85
43989;BME280;54163;51.386;7.178;2022-08-19T02:34:40;100297.69;;;21.51;69.78
43989;BME280;54163;51.386;7.178;2022-08-19T02:37:07;100298.38;;;21.53;69.77
43989;BME280;54163;51.386;7.178;2022-08-19T02:39:54;100293.41;;;21.49;70.10
43989;BME280;54163;51.386;7.178;2022-08-19T02:42:21;100293.97;;;21.44;70.37
43989;BME280;54163;51.386;7.178;2022-08-19T02:44:49;100282.34;;;21.50;69.98
43989;BME280;54163;51.386;7.178;2022-08-19T02:47:17;100293.44;;;21.40;70.38
43989;BME280;54163;51.386;7.178;2022-08-19T02:49:44;100296.69;;;21.36;70.69
43989;BME280;54163;51.386;7.178;2022-08-19T02:52:11;100294.81;;;21.44;70.26
43989;BME280;54163;51.386;7.178;2022-08-19T02:54:39;100293.59;;;21.39;70.66
43989;BME280;54163;51.386;7.178;2022-08-19T02:57:06;100292.81;;;21.22;71.30
43989;BME280;54163;51.386;7.178;2022-08-19T02:59:33;100289.88;;;21.32;70.77
43989;BME280;54163;51.386;7.178;2022-08-19T03:02:02;100293.63;;;21.31;70.88
43989;BME280;54163;51.386;7.178;2022-08-19T03:04:29;100294.50;;;21.23;71.18
43989;BME280;54163;51.386;7.178;2022-08-19T03:06:57;100295.50;;;21.30;70.83
43989;BME280;54163;51.386;7.178;2022-08-19T03:09:24;100297.72;;;21.35;70.52
43989;BME280;54163;51.386;7.178;2022-08-19T03:11:51;100295.34;;;21.32;70.50
43989;BME280;54163;51.386;7.178;2022-08-19T03:14:18;100304.53;;;21.39;70.10
43989;BME280;54163;51.386;7.178;2022-08-19T03:16:47;100297.16;;;21.56;69.70
43989;BME280;54163;51.386;7.178;2022-08-19T03:19:17;100285.53;;;21.62;69.11
43989;BME280;54163;51.386;7.178;2022-08-19T03:21:45;100287.84;;;20.85;72.56
43989;BME280;54163;51.386;7.178;2022-08-19T03:24:13;100286.47;;;20.89;72.73
43989;BME280;54163;51.386;7.178;2022-08-19T03:26:43;100298.06;;;20.91;72.69
43989;BME280;54163;51.386;7.178;2022-08-19T03:29:10;100297.72;;;20.95;72.63
43989;BME280;54163;51.386;7.178;2022-08-19T03:31:39;100292.63;;;20.91;72.81
43989;BME280;54163;51.386;7.178;2022-08-19T03:34:07;100289.88;;;20.83;72.88
43989;BME280;54163;51.386;7.178;2022-08-19T03:36:35;100288.34;;;20.89;72.81
43989;BME280;54163;51.386;7.178;2022-08-19T03:39:02;100297.88;;;20.85;72.89
43989;BME280;54163;51.386;7.178;2022-08-19T03:41:31;100288.50;;;20.96;72.51
43989;BME280;54163;51.386;7.178;2022-08-19T03:43:58;100288.00;;;21.00;72.46
43989;BME280;54163;51.386;7.178;2022-08-19T03:46:28;100291.06;;;20.97;72.52
43989;BME280;54163;51.386;7.178;2022-08-19T03:48:57;100298.06;;;20.91;72.95
43989;BME280;54163;51.386;7.178;2022-08-19T03:51:27;100296.00;;;20.93;72.95
43989;BME280;54163;51.386;7.178;2022-08-19T03:53:59;100297.38;;;20.98;72.90
43989;BME280;54163;51.386;7.178;2022-08-19T03:56:28;100304.88;;;20.96;72.66
43989;BME280;54163;51.386;7.178;2022-08-19T03:58:56;100297.38;;;20.98;72.76
43989;BME280;54163;51.386;7.178;2022-08-19T04:01:27;100302.16;;;20.87;73.04
43989;BME280;54163;51.386;7.178;2022-08-19T04:03:55;100309.13;;;20.82;73.30
43989;BME280;54163;51.386;7.178;2022-08-19T04:06:24;100304.88;;;20.96;72.50
43989;BME280;54163;51.386;7.178;2022-08-19T04:08:54;100298.41;;;20.97;72.36
43989;BME280;54163;51.386;7.178;2022-08-19T04:11:24;100302.19;;;21.20;71.19
43989;BME280;54163;51.386;7.178;2022-08-19T04:13:53;100303.53;;;21.24;70.76
43989;BME280;54163;51.386;7.178;2022-08-19T04:16:21;100312.53;;;21.08;71.61
43989;BME280;54163;51.386;7.178;2022-08-19T04:18:48;100315.28;;;21.00;71.73
43989;BME280;54163;51.386;7.178;2022-08-19T04:21:17;100309.31;;;20.88;72.55
43989;BME280;54163;51.386;7.178;2022-08-19T04:23:44;100316.31;;;21.07;71.36
43989;BME280;54163;51.386;7.178;2022-08-19T04:26:13;100308.66;;;21.11;71.35
43989;BME280;54163;51.386;7.178;2022-08-19T04:28:43;100303.53;;;21.24;70.64
43989;BME280;54163;51.386;7.178;2022-08-19T04:31:13;100311.38;;;21.27;70.50
43989;BME280;54163;51.386;7.178;2022-08-19T04:33:41;100316.66;;;21.28;70.40
43989;BME280;54163;51.386;7.178;2022-08-19T04:36:16;100321.59;;;21.41;70.06
43989;BME280;54163;51.386;7.178;2022-08-19T04:38:43;100319.53;;;21.27;70.81
43989;BME280;54163;51.386;7.178;2022-08-19T04:41:10;100317.84;;;21.34;70.62
43989;BME280;54163;51.386;7.178;2022-08-19T04:43:56;100320.41;;;21.35;70.63
43989;BME280;54163;51.386;7.178;2022-08-19T04:46:23;100331.81;;;21.31;70.87
43989;BME280;54163;51.386;7.178;2022-08-19T04:48:50;100332.53;;;21.25;71.40
43989;BME280;54163;51.386;7.178;2022-08-19T04:51:18;100333.00;;;21.20;71.72
43989;BME280;54163;51.386;7.178;2022-08-19T04:53:46;100337.63;;;21.44;70.68
43989;BME280;54163;51.386;7.178;2022-08-19T04:56:15;100331.47;;;21.50;70.52
43989;BME280;54163;51.386;7.178;2022-08-19T04:58:45;100334.88;;;21.52;70.31
43989;BME280;54163;51.386;7.178;2022-08-19T05:01:15;100336.94;;;21.18;72.16
43989;BME280;54163;51.386;7.178;2022-08-19T05:03:43;100340.88;;;21.15;72.88
43989;BME280;54163;51.386;7.178;2022-08-19T05:06:12;100337.59;;;21.36;72.00
43989;BME280;54163;51.386;7.178;2022-08-19T05:08:40;100343.59;;;21.48;71.35
43989;BME280;54163;51.386;7.178;2022-08-19T05:11:14;100340.69;;;21.33;72.42
43989;BME280;54163;51.386;7.178;2022-08-19T05:13:42;100351.25;;;21.44;72.30
43989;BME280;54163;51.386;7.178;2022-08-19T05:16:10;100349.06;;;21.31;72.82
43989;BME280;54163;51.386;7.178;2022-08-19T05:18:39;100343.09;;;21.44;72.73
43989;BME280;54163;51.386;7.178;2022-08-19T05:21:24;100349.03;;;21.48;72.29
43989;BME280;54163;51.386;7.178;2022-08-19T05:24:09;100348.00;;;21.49;72.37
43989;BME280;54163;51.386;7.178;2022-08-19T05:26:37;100354.66;;;21.54;72.24
43989;BME280;54163;51.386;7.178;2022-08-19T05:29:04;100342.72;;;21.47;72.50
43989;BME280;54163;51.386;7.178;2022-08-19T05:31:34;100344.94;;;21.60;72.39
43989;BME280;54163;51.386;7.178;2022-08-19T05:34:02;100347.13;;;21.64;72.22
43989;BME280;54163;51.386;7.178;2022-08-19T05:36:36;100348.09;;;21.87;71.31
43989;BME280;54163;51.386;7.178;2022-08-19T05:39:05;100346.78;;;21.91;70.98
43989;BME280;54163;51.386;7.178;2022-08-19T05:41:32;100355.63;;;21.93;71.05
43989;BME280;54163;51.386;7.178;2022-08-19T05:44:02;100351.69;;;22.04;70.56
43989;BME280;54163;51.386;7.178;2022-08-19T05:46:32;100350.47;;;22.07;70.48
43989;BME280;54163;51.386;7.178;2022-08-19T05:48:58;100344.66;;;22.10;70.43
43989;BME280;54163;51.386;7.178;2022-08-19T05:51:26;100348.69;;;22.22;69.94
43989;BME280;54163;51.386;7.178;2022-08-19T05:53:53;100351.88;;;22.33;69.41
43989;BME280;54163;51.386;7.178;2022-08-19T05:56:20;100351.00;;;22.41;69.24
43989;BME280;54163;51.386;7.178;2022-08-19T05:58:47;100348.22;;;22.49;68.76
43989;BME280;54163;51.386;7.178;2022-08-19T06:01:16;100342.25;;;22.45;68.96
43989;BME280;54163;51.386;7.178;2022-08-19T06:03:44;100350.94;;;22.49;69.22
43989;BME280;54163;51.386;7.178;2022-08-19T06:06:14;100350.78;;;22.50;69.36
43989;BME280;54163;51.386;7.178;2022-08-19T06:08:43;100352.97;;;22.55;69.41
43989;BME280;54163;51.386;7.178;2022-08-19T06:11:17;100351.44;;;22.52;70.37
43989;BME280;54163;51.386;7.178;2022-08-19T06:13:45;100349.38;;;22.55;70.68
43989;BME280;54163;51.386;7.178;2022-08-19T06:16:16;100348.88;;;22.51;70.92
43989;BME280;54163;51.386;7.178;2022-08-19T06:18:48;100349.31;;;22.71;70.46
43989;BME280;54163;51.386;7.178;2022-08-19T06:21:17;100352.25;;;22.92;69.32
43989;BME280;54163;51.386;7.178;2022-08-19T06:23:47;100350.75;;;23.12;68.96
43989;BME280;54163;51.386;7.178;2022-08-19T06:26:14;100349.59;;;23.07;69.20
43989;BME280;54163;51.386;7.178;2022-08-19T06:28:42;100350.13;;;23.25;69.00
43989;BME280;54163;51.386;7.178;2022-08-19T06:31:13;100349.09;;;23.26;69.23
43989;BME280;54163;51.386;7.178;2022-08-19T06:33:40;100337.66;;;22.99;70.69
43989;BME280;54163;51.386;7.178;2022-08-19T06:36:16;100338.31;;;23.01;71.28
43989;BME280;54163;51.386;7.178;2022-08-19T06:38:43;100347.63;;;23.15;70.94
43989;BME280;54163;51.386;7.178;2022-08-19T06:41:12;100350.34;;;23.38;70.11
43989;BME280;54163;51.386;7.178;2022-08-19T06:43:38;100354.13;;;23.37;70.14
43989;BME280;54163;51.386;7.178;2022-08-19T06:46:10;100349.06;;;23.48;69.77
43989;BME280;54163;51.386;7.178;2022-08-19T06:48:38;100346.53;;;23.47;69.95
43989;BME280;54163;51.386;7.178;2022-08-19T06:51:06;100343.81;;;23.47;69.94
43989;BME280;54163;51.386;7.178;2022-08-19T06:53:33;100350.53;;;23.59;69.45
43989;BME280;54163;51.386;7.178;2022-08-19T06:56:00;100347.41;;;23.62;69.35
43989;BME280;54163;51.386;7.178;2022-08-19T06:58:30;100347.63;;;23.75;69.08
43989;BME280;54163;51.386;7.178;2022-08-19T07:00:59;100340.44;;;23.60;69.49
43989;BME280;54163;51.386;7.178;2022-08-19T07:03:31;100347.69;;;23.67;69.57
43989;BME280;54163;51.386;7.178;2022-08-19T07:05:58;100346.38;;;23.78;68.66
43989;BME280;54163;51.386;7.178;2022-08-19T07:08:28;100351.38;;;23.89;68.55
43989;BME280;54163;51.386;7.178;2022-08-19T07:10:55;100349.34;;;23.91;68.64
43989;BME280;54163;51.386;7.178;2022-08-19T07:13:22;100354.50;;;23.86;68.31
43989;BME280;54163;51.386;7.178;2022-08-19T07:15:50;100359.44;;;23.90;68.08
43989;BME280;54163;51.386;7.178;2022-08-19T07:18:18;100358.91;;;24.24;66.91
43989;BME280;54163;51.386;7.178;2022-08-19T07:20:45;100362.66;;;24.38;65.93
43989;BME280;54163;51.386;7.178;2022-08-19T07:23:13;100352.81;;;24.29;66.18
43989;BME280;54163;51.386;7.178;2022-08-19T07:25:40;100366.81;;;24.34;66.06
43989;BME280;54163;51.386;7.178;2022-08-19T07:28:07;100360.28;;;24.35;65.87
43989;BME280;54163;51.386;7.178;2022-08-19T07:30:37;100370.97;;;24.30;66.49
43989;BME280;54163;51.386;7.178;2022-08-19T07:33:07;100371.75;;;24.24;66.93
43989;BME280;54163;51.386;7.178;2022-08-19T07:35:34;100385.53;;;24.45;65.83
43989;BME280;54163;51.386;7.178;2022-08-19T07:38:01;100385.06;;;24.41;66.17
43989;BME280;54163;51.386;7.178;2022-08-19T07:40:30;100393.50;;;24.76;65.08
43989;BME280;54163;51.386;7.178;2022-08-19T07:42:57;100390.38;;;24.79;64.53
43989;BME280;54163;51.386;7.178;2022-08-19T07:45:24;100400.72;;;24.62;65.28
43989;BME280;54163;51.386;7.178;2022-08-19T07:47:50;100395.50;;;24.67;64.86
43989;BME280;54163;51.386;7.178;2022-08-19T07:50:20;100389.19;;;24.81;64.32
43989;BME280;54163;51.386;7.178;2022-08-19T07:52:48;100406.66;;;24.80;64.32
43989;BME280;54163;51.386;7.178;2022-08-19T07:55:17;100403.44;;;24.91;64.31
43989;BME280;54163;51.386;7.178;2022-08-19T07:57:44;100400.19;;;25.02;63.49
43989;BME280;54163;51.386;7.178;2022-08-19T08:00:12;100405.38;;;25.12;63.18
43989;BME280;54163;51.386;7.178;2022-08-19T08:02:39;100408.91;;;25.27;62.69
43989;BME280;54163;51.386;7.178;2022-08-19T08:05:08;100415.34;;;25.41;62.54
43989;BME280;54163;51.386;7.178;2022-08-19T08:07:54;100419.81;;;25.42;62.37
43989;BME280;54163;51.386;7.178;2022-08-19T08:10:38;100426.22;;;25.28;62.76
43989;BME280;54163;51.386;7.178;2022-08-19T08:13:05;100423.94;;;25.31;63.13
43989;BME280;54163;51.386;7.178;2022-08-19T08:15:32;100428.00;;;25.56;62.09
43989;BME280;54163;51.386;7.178;2022-08-19T08:17:58;100426.47;;;25.75;61.44
43989;BME280;54163;51.386;7.178;2022-08-19T08:20:25;100432.03;;;25.82;61.68
43989;BME280;54163;51.386;7.178;2022-08-19T08:22:54;100435.38;;;25.77;62.10
43989;BME280;54163;51.386;7.178;2022-08-19T08:25:38;100436.44;;;26.04;60.77
43989;BME280;54163;51.386;7.178;2022-08-19T08:28:05;100442.31;;;26.01;60.52
43989;BME280;54163;51.386;7.178;2022-08-19T08:30:33;100434.31;;;26.27;60.04
43989;BME280;54163;51.386;7.178;2022-08-19T08:33:01;100436.78;;;26.56;59.05
43989;BME280;54163;51.386;7.178;2022-08-19T08:35:28;100449.47;;;26.51;59.27
43989;BME280;54163;51.386;7.178;2022-08-19T08:37:56;100438.06;;;26.19;59.70
43989;BME280;54163;51.386;7.178;2022-08-19T08:40:28;100437.97;;;26.41;58.95
43989;BME280;54163;51.386;7.178;2022-08-19T08:42:59;100443.97;;;26.51;58.72
43989;BME280;54163;51.386;7.178;2022-08-19T08:45:30;100447.81;;;26.63;57.92
43989;BME280;54163;51.386;7.178;2022-08-19T08:48:04;100443.44;;;26.75;57.82
43989;BME280;54163;51.386;7.178;2022-08-19T08:50:40;100435.88;;;26.43;58.68
43989;BME280;54163;51.386;7.178;2022-08-19T08:53:16;100435.91;;;26.84;57.32
43989;BME280;54163;51.386;7.178;2022-08-19T08:55:44;100434.00;;;26.91;57.07
43989;BME280;54163;51.386;7.178;2022-08-19T08:58:16;100440.81;;;26.95;56.95
43989;BME280;54163;51.386;7.178;2022-08-19T09:00:47;100436.41;;;27.07;56.25
43989;BME280;54163;51.386;7.178;2022-08-19T09:03:18;100434.28;;;27.09;56.19
43989;BME280;54163;51.386;7.178;2022-08-19T09:05:55;100426.50;;;27.25;55.80
43989;BME280;54163;51.386;7.178;2022-08-19T09:08:32;100430.97;;;27.40;55.15
43989;BME280;54163;51.386;7.178;2022-08-19T09:11:06;100431.22;;;27.45;54.08
43989;BME280;54163;51.386;7.178;2022-08-19T09:13:42;100420.22;;;27.58;52.67
43989;BME280;54163;51.386;7.178;2022-08-19T09:16:16;100430.56;;;27.49;53.00
43989;BME280;54163;51.386;7.178;2022-08-19T09:18:49;100425.03;;;27.36;52.28
43989;BME280;54163;51.386;7.178;2022-08-19T09:21:19;100436.41;;;27.13;52.46
43989;BME280;54163;51.386;7.178;2022-08-19T09:23:49;100438.44;;;27.52;52.27
43989;BME280;54163;51.386;7.178;2022-08-19T09:26:18;100421.88;;;27.59;51.14
43989;BME280;54163;51.386;7.178;2022-08-19T09:28:46;100431.03;;;27.66;51.46
43989;BME280;54163;51.386;7.178;2022-08-19T09:31:15;100427.22;;;27.67;51.62
43989;BME280;54163;51.386;7.178;2022-08-19T09:33:42;100435.81;;;27.38;52.19
43989;BME280;54163;51.386;7.178;2022-08-19T09:36:11;100420.41;;;27.63;51.80
43989;BME280;54163;51.386;7.178;2022-08-19T09:38:39;100421.06;;;27.78;51.39
43989;BME280;54163;51.386;7.178;2022-08-19T09:41:09;100424.66;;;27.72;51.84
43989;BME280;54163;51.386;7.178;2022-08-19T09:43:39;100436.09;;;27.49;51.84
43989;BME280;54163;51.386;7.178;2022-08-19T09:46:08;100439.94;;;27.81;51.32
43989;BME280;54163;51.386;7.178;2022-08-19T09:48:35;100431.47;;;27.96;51.13
43989;BME280;54163;51.386;7.178;2022-08-19T09:51:04;100422.09;;;27.90;51.11
43989;BME280;54163;51.386;7.178;2022-08-19T09:53:32;100429.53;;;27.96;51.18
43989;BME280;54163;51.386;7.178;2022-08-19T09:55:58;100433.13;;;27.97;50.33
43989;BME280;54163;51.386;7.178;2022-08-19T09:58:27;100427.81;;;28.35;49.67
43989;BME280;54163;51.386;7.178;2022-08-19T10:00:57;100428.84;;;28.40;49.31
43989;BME280;54163;51.386;7.178;2022-08-19T10:03:25;100430.94;;;28.58;49.16
43989;BME280;54163;51.386;7.178;2022-08-19T10:05:53;100420.78;;;28.52;49.16
43989;BME280;54163;51.386;7.178;2022-08-19T10:08:22;100434.44;;;28.27;48.86
43989;BME280;54163;51.386;7.178;2022-08-19T10:10:51;100438.81;;;28.54;48.31
43989;BME280;54163;51.386;7.178;2022-08-19T10:13:21;100432.19;;;28.62;47.76
43989;BME280;54163;51.386;7.178;2022-08-19T10:15:51;100423.78;;;29.01;47.05
43989;BME280;54163;51.386;7.178;2022-08-19T10:18:21;100418.50;;;28.93;46.55
43989;BME280;54163;51.386;7.178;2022-08-19T10:20:50;100414.66;;;28.94;46.93
43989;BME280;54163;51.386;7.178;2022-08-19T10:23:19;100416.91;;;28.72;47.12
43989;BME280;54163;51.386;7.178;2022-08-19T10:25:46;100421.56;;;28.72;47.04
43989;BME280;54163;51.386;7.178;2022-08-19T10:28:14;100431.56;;;28.60;46.66
43989;BME280;54163;51.386;7.178;2022-08-19T10:30:42;100414.59;;;28.50;46.63
43989;BME280;54163;51.386;7.178;2022-08-19T10:33:10;100410.56;;;28.52;46.58
43989;BME280;54163;51.386;7.178;2022-08-19T10:35:39;100411.81;;;28.63;46.58
43989;BME280;54163;51.386;7.178;2022-08-19T10:38:06;100418.81;;;28.72;46.05
43989;BME280;54163;51.386;7.178;2022-08-19T10:40:33;100424.63;;;28.38;46.86
43989;BME280;54163;51.386;7.178;2022-08-19T10:43:00;100423.69;;;28.63;46.50
43989;BME280;54163;51.386;7.178;2022-08-19T10:45:27;100415.44;;;28.70;46.30
43989;BME280;54163;51.386;7.178;2022-08-19T10:47:55;100416.72;;;28.67;46.68
43989;BME280;54163;51.386;7.178;2022-08-19T10:50:23;100416.88;;;28.79;45.68
43989;BME280;54163;51.386;7.178;2022-08-19T10:53:08;100414.66;;;28.94;45.86
43989;BME280;54163;51.386;7.178;2022-08-19T10:55:35;100416.44;;;28.82;45.94
43989;BME280;54163;51.386;7.178;2022-08-19T10:58:21;100418.97;;;28.77;46.37
43989;BME280;54163;51.386;7.178;2022-08-19T11:00:52;100416.06;;;28.59;46.30
43989;BME280;54163;51.386;7.178;2022-08-19T11:03:20;100410.13;;;28.55;46.26
43989;BME280;54163;51.386;7.178;2022-08-19T11:05:57;100408.81;;;28.71;45.77
43989;BME280;54163;51.386;7.178;2022-08-19T11:08:23;100415.72;;;28.93;45.70
43989;BME280;54163;51.386;7.178;2022-08-19T11:10:53;100417.97;;;29.09;44.83
43989;BME280;54163;51.386;7.178;2022-08-19T11:13:27;100409.63;;;29.22;44.99
43989;BME280;54163;51.386;7.178;2022-08-19T11:15:58;100420.06;;;29.20;44.50
43989;BME280;54163;51.386;7.178;2022-08-19T11:18:25;100414.28;;;29.22;44.85
43989;BME280;54163;51.386;7.178;2022-08-19T11:20:54;100412.09;;;29.37;44.12
43989;BME280;54163;51.386;7.178;2022-08-19T11:23:21;100412.28;;;29.42;43.30
43989;BME280;54163;51.386;7.178;2022-08-19T11:25:49;100409.19;;;29.57;42.95
43989;BME280;54163;51.386;7.178;2022-08-19T11:28:15;100412.41;;;29.78;42.34
43989;BME280;54163;51.386;7.178;2022-08-19T11:30:43;100403.72;;;29.75;42.32
43989;BME280;54163;51.386;7.178;2022-08-19T11:33:09;100403.59;;;29.95;42.85
43989;BME280;54163;51.386;7.178;2022-08-19T11:35:39;100402.31;;;30.33;42.10
43989;BME280;54163;51.386;7.178;2022-08-19T11:38:07;100395.75;;;30.53;40.97
43989;BME280;54163;51.386;7.178;2022-08-19T11:40:35;100402.03;;;30.78;40.06
43989;BME280;54163;51.386;7.178;2022-08-19T11:43:02;100404.34;;;30.99;39.71
43989;BME280;54163;51.386;7.178;2022-08-19T11:45:30;100404.53;;;31.16;39.84
43989;BME280;54163;51.386;7.178;2022-08-19T11:47:57;100406.38;;;31.22;38.88
43989;BME280;54163;51.386;7.178;2022-08-19T11:50:24;100400.50;;;31.00;39.78
43989;BME280;54163;51.386;7.178;2022-08-19T11:52:54;100405.13;;;31.18;39.71
43989;BME280;54163;51.386;7.178;2022-08-19T11:55:22;100385.72;;;31.48;39.74
43989;BME280;54163;51.386;7.178;2022-08-19T11:57:49;100397.81;;;31.65;39.26
43989;BME280;54163;51.386;7.178;2022-08-19T12:00:16;100391.31;;;31.71;38.46
43989;BME280;54163;51.386;7.178;2022-08-19T12:02:43;100386.84;;;31.58;38.33
43989;BME280;54163;51.386;7.178;2022-08-19T12:05:10;100403.50;;;31.28;37.48
43989;BME280;54163;51.386;7.178;2022-08-19T12:07:37;100400.97;;;30.97;37.35
43989;BME280;54163;51.386;7.178;2022-08-19T12:10:05;100395.53;;;30.54;38.46
43989;BME280;54163;51.386;7.178;2022-08-19T12:12:34;100378.34;;;30.27;38.74
43989;BME280;54163;51.386;7.178;2022-08-19T12:15:02;100391.50;;;30.32;39.39
43989;BME280;54163;51.386;7.178;2022-08-19T12:17:28;100392.66;;;30.43;39.90
43989;BME280;54163;51.386;7.178;2022-08-19T12:19:56;100390.53;;;30.45;39.53
43989;BME280;54163;51.386;7.178;2022-08-19T12:22:23;100385.22;;;29.51;41.05
43989;BME280;54163;51.386;7.178;2022-08-19T12:24:50;100392.06;;;30.41;39.50
43989;BME280;54163;51.386;7.178;2022-08-19T12:27:18;100382.72;;;30.17;39.00
43989;BME280;54163;51.386;7.178;2022-08-19T12:29:47;100388.53;;;30.09;40.42
43989;BME280;54163;51.386;7.178;2022-08-19T12:32:14;100382.63;;;30.23;40.32
43989;BME280;54163;51.386;7.178;2022-08-19T12:34:42;100384.13;;;30.62;38.64
43989;BME280;54163;51.386;7.178;2022-08-19T12:37:10;100385.41;;;30.96;38.81
43989;BME280;54163;51.386;7.178;2022-08-19T12:39:38;100383.22;;;31.16;37.90
43989;BME280;54163;51.386;7.178;2022-08-19T12:42:07;100371.94;;;31.41;36.58
43989;BME280;54163;51.386;7.178;2022-08-19T12:44:34;100374.19;;;31.51;36.82
43989;BME280;54163;51.386;7.178;2022-08-19T12:47:03;100388.31;;;31.84;36.74
43989;BME280;54163;51.386;7.178;2022-08-19T12:49:31;100371.28;;;31.57;36.68
43989;BME280;54163;51.386;7.178;2022-08-19T12:51:59;100380.28;;;31.41;37.45
43989;BME280;54163;51.386;7.178;2022-08-19T12:54:26;100375.88;;;31.75;36.72
43989;BME280;54163;51.386;7.178;2022-08-19T12:56:53;100377.72;;;32.27;36.31
43989;BME280;54163;51.386;7.178;2022-08-19T12:59:21;100373.56;;;32.65;35.73